PWSweather.com
Personal Weather Stations
Station Observations
RRFWEATHER
Rail Road Flat, Rail Road Flat, CA 95248

Rail Road FlatRail Road Flat, CA 95248

Lat: 38.306238, Lon: -120.514548

Elevation: 2808

Station Type: Oregon Scientific WMR-968

http://weather.railroadflat.org

High Low Average
Temperature 49.3°F9.6°F 42.4°F5.8°F 45.9°F7.7°F
Dew Point 49.3°F9.6°F 42.4°F5.8°F 45.9°F7.7°F
Winds 23.3 mph SE37.5 mph SE Calm Calm 8.3 mph 13.4 mph
Wind Gusts 26.2 mph42.2 mph -- 10.4 mph16.7 mph
Humidity 98% 98% 98%
Pressure 30.12 in1020.00 in 29.85 in1010.80 in -
Precipitation 26.07 in662.20 in - -
Hour Temp Dew Point Humidity Winds Wind Gusts Pressure Precip Precip Rate Daily Precip Total
12:00 AM 48.7°F9.3°C 48.7°F9.3°C 98% 8.1 mph SSE13.0 kmh SSE 11.9 mph19.2 kmh 29.88 in1011.9 mb 0.35 in8.9 mm 0.00 in0.0 mm 0.35 in8.9 mm
12:05 AM 48.9°F9.4°C 48.9°F9.4°C 98% 10.5 mph S16.9 kmh S 10.5 mph16.9 kmh 29.88 in1011.9 mb 0.31 in7.9 mm 0.00 in0.0 mm 0.35 in8.9 mm
12:10 AM 48.9°F9.4°C 48.9°F9.4°C 98% 13.2 mph SE21.2 kmh SE 13.2 mph21.2 kmh 29.88 in1011.9 mb 0.31 in7.9 mm 0.00 in0.0 mm 0.35 in8.9 mm
12:15 AM 48.9°F9.4°C 48.9°F9.4°C 98% 7.6 mph S12.2 kmh S 10.1 mph16.3 kmh 29.88 in1011.9 mb 0.28 in7.1 mm 0.00 in0.0 mm 0.35 in8.9 mm
12:20 AM 48.9°F9.4°C 48.9°F9.4°C 98% 12.3 mph SE19.8 kmh SE 13.2 mph21.2 kmh 29.88 in1011.9 mb 0.28 in7.1 mm 0.00 in0.0 mm 0.35 in8.9 mm
12:25 AM 49.1°F9.5°C 49.1°F9.5°C 98% 9.6 mph SE15.4 kmh SE 10.1 mph16.3 kmh 29.88 in1011.9 mb 0.24 in6.1 mm 0.00 in0.0 mm 0.35 in8.9 mm
12:30 AM 49.1°F9.5°C 49.1°F9.5°C 98% 10.5 mph S16.9 kmh S 15.4 mph24.8 kmh 29.88 in1011.9 mb 0.24 in6.1 mm 0.00 in0.0 mm 0.35 in8.9 mm
12:40 AM 48.9°F9.4°C 48.9°F9.4°C 98% 10.5 mph SE16.9 kmh SE 10.5 mph16.9 kmh 29.88 in1011.9 mb 0.28 in7.1 mm 0.24 in6.1 mm 0.39 in9.9 mm
12:45 AM 48.7°F9.3°C 48.7°F9.3°C 98% 4.0 mph S6.4 kmh S 8.1 mph13.0 kmh 29.88 in1011.9 mb 0.28 in7.1 mm 0.00 in0.0 mm 0.39 in9.9 mm
12:50 AM 48.5°F9.2°C 48.5°F9.2°C 98% 11.0 mph SE17.7 kmh SE 11.0 mph17.7 kmh 29.88 in1011.9 mb 0.24 in6.1 mm 0.00 in0.0 mm 0.39 in9.9 mm
12:55 AM 48.7°F9.3°C 48.7°F9.3°C 98% 14.1 mph SSE22.7 kmh SSE 14.1 mph22.7 kmh 29.88 in1011.9 mb 0.20 in5.1 mm 0.00 in0.0 mm 0.39 in9.9 mm
01:00 AM 48.7°F9.3°C 48.7°F9.3°C 98% 10.1 mph SE16.3 kmh SE 10.1 mph16.3 kmh 29.88 in1011.9 mb 0.16 in4.1 mm 0.00 in0.0 mm 0.39 in9.9 mm
01:05 AM 48.7°F9.3°C 48.7°F9.3°C 98% 11.4 mph SE18.3 kmh SE 20.6 mph33.2 kmh 29.88 in1011.9 mb 0.16 in4.1 mm 0.00 in0.0 mm 0.39 in9.9 mm
01:10 AM 48.7°F9.3°C 48.7°F9.3°C 98% 8.1 mph S13.0 kmh S 8.7 mph14.0 kmh 29.88 in1011.9 mb 0.12 in3.0 mm 0.00 in0.0 mm 0.39 in9.9 mm
01:15 AM 48.7°F9.3°C 48.7°F9.3°C 98% 8.7 mph SE14.0 kmh SE 13.2 mph21.2 kmh 29.88 in1011.9 mb 0.12 in3.0 mm 0.00 in0.0 mm 0.39 in9.9 mm
01:20 AM 48.7°F9.3°C 48.7°F9.3°C 98% 15.4 mph SSE24.8 kmh SSE 17.9 mph28.8 kmh 29.88 in1011.9 mb 0.12 in3.0 mm 0.00 in0.0 mm 0.39 in9.9 mm
01:25 AM 48.7°F9.3°C 48.7°F9.3°C 98% 14.5 mph SE23.3 kmh SE 16.3 mph26.2 kmh 29.88 in1011.9 mb 0.89 in22.6 mm 9.24 in234.7 mm 1.16 in29.5 mm
01:30 AM 48.9°F9.4°C 48.9°F9.4°C 98% 8.1 mph SE13.0 kmh SE 12.8 mph20.6 kmh 29.85 in1010.8 mb 0.85 in21.6 mm 0.00 in0.0 mm 1.16 in29.5 mm
01:35 AM 48.7°F9.3°C 48.7°F9.3°C 98% 11.9 mph S19.2 kmh S 11.9 mph19.2 kmh 29.85 in1010.8 mb 0.85 in21.6 mm 0.00 in0.0 mm 1.16 in29.5 mm
01:40 AM 48.9°F9.4°C 48.9°F9.4°C 98% 9.6 mph SSE15.4 kmh SSE 13.2 mph21.2 kmh 29.85 in1010.8 mb 0.81 in20.6 mm 0.00 in0.0 mm 1.16 in29.5 mm
01:45 AM 48.9°F9.4°C 48.9°F9.4°C 98% 10.5 mph S16.9 kmh S 12.3 mph19.8 kmh 29.88 in1011.9 mb 0.81 in20.6 mm 0.00 in0.0 mm 1.16 in29.5 mm
01:50 AM 49.1°F9.5°C 49.1°F9.5°C 98% 10.5 mph SSE16.9 kmh SSE 13.2 mph21.2 kmh 29.88 in1011.9 mb 0.81 in20.6 mm 0.00 in0.0 mm 1.16 in29.5 mm
01:55 AM 49.1°F9.5°C 49.1°F9.5°C 98% 8.1 mph SSE13.0 kmh SSE 8.1 mph13.0 kmh 29.88 in1011.9 mb 0.81 in20.6 mm 0.00 in0.0 mm 1.16 in29.5 mm
02:00 AM 48.9°F9.4°C 48.9°F9.4°C 98% 10.5 mph S16.9 kmh S 14.5 mph23.3 kmh 29.85 in1010.8 mb 0.77 in19.6 mm 0.00 in0.0 mm 1.16 in29.5 mm
02:05 AM 49.1°F9.5°C 49.1°F9.5°C 98% 8.1 mph SE13.0 kmh SE 12.3 mph19.8 kmh 29.85 in1010.8 mb 0.77 in19.6 mm 0.00 in0.0 mm 1.16 in29.5 mm
02:10 AM 49.1°F9.5°C 49.1°F9.5°C 98% 12.3 mph SE19.8 kmh SE 12.3 mph19.8 kmh 29.85 in1010.8 mb 0.77 in19.6 mm 0.00 in0.0 mm 1.16 in29.5 mm
02:15 AM 49.3°F9.6°C 49.3°F9.6°C 98% 12.8 mph SE20.6 kmh SE 12.8 mph20.6 kmh 29.88 in1011.9 mb 0.77 in19.6 mm 0.00 in0.0 mm 1.16 in29.5 mm
02:20 AM 49.1°F9.5°C 49.1°F9.5°C 98% 11.9 mph SSE19.2 kmh SSE 17.0 mph27.4 kmh 29.88 in1011.9 mb 0.77 in19.6 mm 0.00 in0.0 mm 1.16 in29.5 mm
02:25 AM 48.7°F9.3°C 48.7°F9.3°C 98% 10.1 mph SSE16.3 kmh SSE 23.3 mph37.5 kmh 29.88 in1011.9 mb 0.00 in0.0 mm 0.00 in0.0 mm 1.16 in29.5 mm
02:30 AM 49.1°F9.5°C 49.1°F9.5°C 98% 8.3 mph SSE13.4 kmh SSE 8.3 mph13.4 kmh 29.88 in1011.9 mb 0.00 in0.0 mm 0.00 in0.0 mm 1.16 in29.5 mm
02:35 AM 48.7°F9.3°C 48.7°F9.3°C 98% 6.3 mph SSW10.1 kmh SSW 14.5 mph23.3 kmh 29.88 in1011.9 mb 0.00 in0.0 mm 0.00 in0.0 mm 1.16 in29.5 mm
02:40 AM 48.7°F9.3°C 48.7°F9.3°C 98% 11.0 mph SE17.7 kmh SE 13.2 mph21.2 kmh 29.88 in1011.9 mb 0.04 in1.0 mm 0.48 in12.2 mm 1.20 in30.5 mm
02:45 AM 48.5°F9.2°C 48.5°F9.2°C 98% 8.7 mph S14.0 kmh S 19.2 mph30.9 kmh 29.88 in1011.9 mb 0.04 in1.0 mm 0.00 in0.0 mm 1.20 in30.5 mm
02:50 AM 48.7°F9.3°C 48.7°F9.3°C 98% 12.3 mph SW19.8 kmh SW 15.0 mph24.1 kmh 29.88 in1011.9 mb 0.04 in1.0 mm 0.00 in0.0 mm 1.20 in30.5 mm
02:55 AM 48.7°F9.3°C 48.7°F9.3°C 98% 17.0 mph SE27.4 kmh SE 17.4 mph28.0 kmh 29.88 in1011.9 mb 0.04 in1.0 mm 0.00 in0.0 mm 1.20 in30.5 mm
03:00 AM 48.5°F9.2°C 48.5°F9.2°C 98% 17.4 mph SSE28.0 kmh SSE 18.3 mph29.5 kmh 29.88 in1011.9 mb 0.04 in1.0 mm 0.00 in0.0 mm 1.20 in30.5 mm
03:05 AM 48.5°F9.2°C 48.5°F9.2°C 98% 19.2 mph SSE30.9 kmh SSE 19.2 mph30.9 kmh 29.88 in1011.9 mb 0.04 in1.0 mm 0.00 in0.0 mm 1.20 in30.5 mm
03:10 AM 48.4°F9.1°C 48.4°F9.1°C 98% 14.1 mph SSE22.7 kmh SSE 15.4 mph24.8 kmh 29.88 in1011.9 mb 0.04 in1.0 mm 0.00 in0.0 mm 1.20 in30.5 mm
03:15 AM 48.0°F8.9°C 48.0°F8.9°C 98% 14.5 mph SE23.3 kmh SE 16.3 mph26.2 kmh 29.91 in1012.9 mb 0.04 in1.0 mm 0.00 in0.0 mm 1.20 in30.5 mm
03:20 AM 48.0°F8.9°C 48.0°F8.9°C 98% 7.6 mph SSE12.2 kmh SSE 11.0 mph17.7 kmh 29.91 in1012.9 mb 0.04 in1.0 mm 0.00 in0.0 mm 1.20 in30.5 mm
03:25 AM 48.0°F8.9°C 48.0°F8.9°C 98% 10.5 mph SSE16.9 kmh SSE 17.9 mph28.8 kmh 29.91 in1012.9 mb 0.04 in1.0 mm 0.00 in0.0 mm 1.20 in30.5 mm
03:30 AM 47.8°F8.8°C 47.8°F8.8°C 98% 8.1 mph SSE13.0 kmh SSE 16.8 mph27.0 kmh 29.91 in1012.9 mb 0.04 in1.0 mm 0.00 in0.0 mm 1.20 in30.5 mm
03:35 AM 47.6°F8.7°C 47.6°F8.7°C 98% 15.0 mph SSE24.1 kmh SSE 16.3 mph26.2 kmh 29.91 in1012.9 mb 0.04 in1.0 mm 0.00 in0.0 mm 1.20 in30.5 mm
03:40 AM 47.6°F8.7°C 47.6°F8.7°C 98% 12.3 mph SSE19.8 kmh SSE 12.3 mph19.8 kmh 29.91 in1012.9 mb 0.00 in0.0 mm 0.00 in0.0 mm 1.20 in30.5 mm
03:45 AM 47.5°F8.6°C 47.5°F8.6°C 98% 12.8 mph SSE20.6 kmh SSE 16.8 mph27.0 kmh 29.91 in1012.9 mb 0.00 in0.0 mm 0.00 in0.0 mm 1.20 in30.5 mm
03:50 AM 47.3°F8.5°C 47.3°F8.5°C 98% 7.6 mph S12.2 kmh S 9.2 mph14.8 kmh 29.91 in1012.9 mb 0.04 in1.0 mm 0.48 in12.2 mm 1.24 in31.5 mm
03:55 AM 47.3°F8.5°C 47.3°F8.5°C 98% 8.3 mph S13.4 kmh S 12.8 mph20.6 kmh 29.91 in1012.9 mb 0.04 in1.0 mm 0.00 in0.0 mm 1.24 in31.5 mm
04:00 AM 47.1°F8.4°C 47.1°F8.4°C 98% 8.7 mph SW14.0 kmh SW 14.5 mph23.3 kmh 29.91 in1012.9 mb 0.04 in1.0 mm 0.00 in0.0 mm 1.24 in31.5 mm
04:05 AM 47.1°F8.4°C 47.1°F8.4°C 98% 15.4 mph SSE24.8 kmh SSE 15.4 mph24.8 kmh 29.91 in1012.9 mb 0.04 in1.0 mm 0.00 in0.0 mm 1.24 in31.5 mm
04:10 AM 47.1°F8.4°C 47.1°F8.4°C 98% 5.8 mph S9.3 kmh S 8.3 mph13.4 kmh 29.91 in1012.9 mb 0.08 in2.0 mm 0.48 in12.2 mm 1.28 in32.5 mm
04:15 AM 46.9°F8.3°C 46.9°F8.3°C 98% 10.1 mph SSE16.3 kmh SSE 13.2 mph21.2 kmh 29.94 in1013.9 mb 0.08 in2.0 mm 0.00 in0.0 mm 1.28 in32.5 mm
04:20 AM 46.7°F8.2°C 46.7°F8.2°C 98% 15.4 mph SSE24.8 kmh SSE 15.4 mph24.8 kmh 29.94 in1013.9 mb 0.08 in2.0 mm 0.00 in0.0 mm 1.28 in32.5 mm
04:25 AM 46.7°F8.2°C 46.7°F8.2°C 98% 13.2 mph SSE21.2 kmh SSE 16.3 mph26.2 kmh 29.94 in1013.9 mb 0.08 in2.0 mm 0.00 in0.0 mm 1.28 in32.5 mm
04:30 AM 46.7°F8.2°C 46.7°F8.2°C 98% 12.8 mph SE20.6 kmh SE 12.8 mph20.6 kmh 29.94 in1013.9 mb 0.08 in2.0 mm 0.00 in0.0 mm 1.28 in32.5 mm
04:35 AM 46.7°F8.2°C 46.7°F8.2°C 98% 5.8 mph S9.3 kmh S 13.2 mph21.2 kmh 29.94 in1013.9 mb 0.12 in3.0 mm 0.48 in12.2 mm 1.32 in33.5 mm
04:40 AM 46.7°F8.2°C 46.7°F8.2°C 98% 11.0 mph SSW17.7 kmh SSW 12.3 mph19.8 kmh 29.94 in1013.9 mb 0.12 in3.0 mm 0.00 in0.0 mm 1.32 in33.5 mm
04:45 AM 46.6°F8.1°C 46.6°F8.1°C 98% 10.5 mph SSE16.9 kmh SSE 10.5 mph16.9 kmh 29.94 in1013.9 mb 0.12 in3.0 mm 0.00 in0.0 mm 1.32 in33.5 mm
04:50 AM 46.6°F8.1°C 46.6°F8.1°C 98% 15.9 mph SSE25.6 kmh SSE 15.9 mph25.6 kmh 29.94 in1013.9 mb 0.12 in3.0 mm 0.00 in0.0 mm 1.32 in33.5 mm
04:55 AM 46.6°F8.1°C 46.6°F8.1°C 98% 12.3 mph SE19.8 kmh SE 12.3 mph19.8 kmh 29.94 in1013.9 mb 0.12 in3.0 mm 0.00 in0.0 mm 1.32 in33.5 mm
05:06 AM 46.6°F8.1°C 46.6°F8.1°C 98% 12.8 mph SSE20.6 kmh SSE 15.4 mph24.8 kmh 29.94 in1013.9 mb 0.16 in4.1 mm 0.05 in1.3 mm 1.36 in34.5 mm
05:11 AM 46.6°F8.1°C 46.6°F8.1°C 98% 17.9 mph SE28.8 kmh SE 17.9 mph28.8 kmh 29.94 in1013.9 mb 0.16 in4.1 mm 0.00 in0.0 mm 1.36 in34.5 mm
05:15 AM 46.6°F8.1°C 46.6°F8.1°C 98% 15.0 mph S24.1 kmh S 15.0 mph24.1 kmh 29.94 in1013.9 mb 0.16 in4.1 mm 0.00 in0.0 mm 1.36 in34.5 mm
05:26 AM 46.4°F8.0°C 46.4°F8.0°C 98% 15.4 mph SSE24.8 kmh SSE 17.0 mph27.4 kmh 29.94 in1013.9 mb 0.16 in4.1 mm 0.00 in0.0 mm 1.36 in34.5 mm
05:30 AM 46.4°F8.0°C 46.4°F8.0°C 98% 13.2 mph SSE21.2 kmh SSE 13.2 mph21.2 kmh 29.94 in1013.9 mb 0.16 in4.1 mm 0.00 in0.0 mm 1.36 in34.5 mm
05:35 AM 46.4°F8.0°C 46.4°F8.0°C 98% 18.3 mph S29.5 kmh S 18.3 mph29.5 kmh 29.94 in1013.9 mb 0.16 in4.1 mm 0.00 in0.0 mm 1.36 in34.5 mm
05:41 AM 46.4°F8.0°C 46.4°F8.0°C 98% 7.6 mph S12.2 kmh S 15.0 mph24.1 kmh 29.97 in1014.9 mb 0.20 in5.1 mm 0.40 in10.2 mm 1.40 in35.6 mm
05:45 AM 46.4°F8.0°C 46.4°F8.0°C 98% 3.6 mph W5.8 kmh W 13.2 mph21.2 kmh 29.97 in1014.9 mb 0.20 in5.1 mm 0.00 in0.0 mm 1.40 in35.6 mm
05:50 AM 46.4°F8.0°C 46.4°F8.0°C 98% 11.0 mph SSE17.7 kmh SSE 11.0 mph17.7 kmh 29.97 in1014.9 mb 0.20 in5.1 mm 0.00 in0.0 mm 1.40 in35.6 mm
05:55 AM 46.4°F8.0°C 46.4°F8.0°C 98% 7.2 mph S11.6 kmh S 21.9 mph35.2 kmh 29.97 in1014.9 mb 0.20 in5.1 mm 0.00 in0.0 mm 1.40 in35.6 mm
06:00 AM 46.4°F8.0°C 46.4°F8.0°C 98% 11.0 mph SE17.7 kmh SE 15.0 mph24.1 kmh 29.97 in1014.9 mb 0.24 in6.1 mm 0.04 in1.0 mm 1.44 in36.6 mm
06:05 AM 46.4°F8.0°C 46.4°F8.0°C 98% 11.9 mph SSE19.2 kmh SSE 17.0 mph27.4 kmh 29.97 in1014.9 mb 0.20 in5.1 mm 0.00 in0.0 mm 1.44 in36.6 mm
06:11 AM 46.4°F8.0°C 46.4°F8.0°C 98% 11.0 mph SSE17.7 kmh SSE 17.0 mph27.4 kmh 29.97 in1014.9 mb 0.24 in6.1 mm 0.40 in10.2 mm 1.48 in37.6 mm
06:15 AM 46.2°F7.9°C 46.2°F7.9°C 98% 12.8 mph SE20.6 kmh SE 18.8 mph30.3 kmh 29.97 in1014.9 mb 0.20 in5.1 mm 0.00 in0.0 mm 1.48 in37.6 mm
06:20 AM 46.2°F7.9°C 46.2°F7.9°C 98% 13.2 mph S21.2 kmh S 17.9 mph28.8 kmh 29.97 in1014.9 mb 0.24 in6.1 mm 0.48 in12.2 mm 1.52 in38.6 mm
06:25 AM 46.2°F7.9°C 46.2°F7.9°C 98% 15.4 mph ESE24.8 kmh ESE 17.9 mph28.8 kmh 29.97 in1014.9 mb 0.24 in6.1 mm 0.00 in0.0 mm 1.52 in38.6 mm
06:30 AM 46.2°F7.9°C 46.2°F7.9°C 98% 11.0 mph SW17.7 kmh SW 11.0 mph17.7 kmh 29.97 in1014.9 mb 0.31 in7.9 mm 0.84 in21.3 mm 1.59 in40.4 mm
06:35 AM 46.2°F7.9°C 46.2°F7.9°C 98% 23.3 mph SE37.5 kmh SE 26.2 mph42.2 kmh 29.97 in1014.9 mb 0.28 in7.1 mm 0.00 in0.0 mm 1.59 in40.4 mm
06:41 AM 46.4°F8.0°C 46.4°F8.0°C 98% 9.6 mph S15.4 kmh S 11.0 mph17.7 kmh 29.97 in1014.9 mb 0.31 in7.9 mm 0.30 in7.6 mm 1.62 in41.1 mm
06:45 AM 46.4°F8.0°C 46.4°F8.0°C 98% 12.3 mph S19.8 kmh S 16.3 mph26.2 kmh 29.97 in1014.9 mb 0.28 in7.1 mm 0.00 in0.0 mm 1.62 in41.1 mm
06:50 AM 46.4°F8.0°C 46.4°F8.0°C 98% 23.3 mph S37.5 kmh S 26.2 mph42.2 kmh 29.97 in1014.9 mb 0.24 in6.1 mm 0.00 in0.0 mm 1.62 in41.1 mm
06:55 AM 46.4°F8.0°C 46.4°F8.0°C 98% 17.0 mph SE27.4 kmh SE 17.0 mph27.4 kmh 29.97 in1014.9 mb 0.28 in7.1 mm 0.48 in12.2 mm 1.66 in42.2 mm
07:00 AM 46.4°F8.0°C 46.4°F8.0°C 98% 11.4 mph SSE18.3 kmh SSE 15.0 mph24.1 kmh 29.97 in1014.9 mb 0.24 in6.1 mm 0.00 in0.0 mm 1.66 in42.2 mm
07:05 AM 46.4°F8.0°C 46.4°F8.0°C 98% 11.0 mph SSW17.7 kmh SSW 13.2 mph21.2 kmh 29.97 in1014.9 mb 0.24 in6.1 mm 0.00 in0.0 mm 1.66 in42.2 mm
07:10 AM 46.2°F7.9°C 46.2°F7.9°C 98% 10.1 mph S16.3 kmh S 13.2 mph21.2 kmh 29.97 in1014.9 mb 0.24 in6.1 mm 0.00 in0.0 mm 1.66 in42.2 mm
07:15 AM 46.2°F7.9°C 46.2°F7.9°C 98% 8.3 mph S13.4 kmh S 11.0 mph17.7 kmh 30.00 in1015.9 mb 0.24 in6.1 mm 0.00 in0.0 mm 1.66 in42.2 mm
07:20 AM 46.2°F7.9°C 46.2°F7.9°C 98% 11.4 mph SSE18.3 kmh SSE 15.0 mph24.1 kmh 30.00 in1015.9 mb 0.20 in5.1 mm 0.00 in0.0 mm 1.66 in42.2 mm
07:25 AM 46.2°F7.9°C 46.2°F7.9°C 98% 11.4 mph SSE18.3 kmh SSE 11.9 mph19.2 kmh 30.00 in1015.9 mb 0.20 in5.1 mm 0.00 in0.0 mm 1.66 in42.2 mm
07:30 AM 46.4°F8.0°C 46.4°F8.0°C 98% 15.0 mph S24.1 kmh S 15.0 mph24.1 kmh 30.00 in1015.9 mb 0.12 in3.0 mm 0.00 in0.0 mm 1.66 in42.2 mm
07:35 AM 46.4°F8.0°C 46.4°F8.0°C 98% 13.2 mph SSE21.2 kmh SSE 13.2 mph21.2 kmh 30.00 in1015.9 mb 0.12 in3.0 mm 0.00 in0.0 mm 1.66 in42.2 mm
07:41 AM 46.6°F8.1°C 46.6°F8.1°C 98% 11.0 mph S17.7 kmh S 12.3 mph19.8 kmh 30.00 in1015.9 mb 0.08 in2.0 mm 0.00 in0.0 mm 1.66 in42.2 mm
07:45 AM 46.6°F8.1°C 46.6°F8.1°C 98% 7.6 mph S12.2 kmh S 15.4 mph24.8 kmh 30.00 in1015.9 mb 0.08 in2.0 mm 0.00 in0.0 mm 1.66 in42.2 mm
07:50 AM 46.6°F8.1°C 46.6°F8.1°C 98% 15.4 mph SE24.8 kmh SE 15.4 mph24.8 kmh 30.00 in1015.9 mb 0.08 in2.0 mm 0.00 in0.0 mm 1.66 in42.2 mm
07:55 AM 46.7°F8.2°C 46.7°F8.2°C 98% 8.3 mph S13.4 kmh S 11.0 mph17.7 kmh 30.00 in1015.9 mb 0.04 in1.0 mm 0.00 in0.0 mm 1.66 in42.2 mm
08:00 AM 46.7°F8.2°C 46.7°F8.2°C 98% 13.2 mph SSE21.2 kmh SSE 15.4 mph24.8 kmh 30.03 in1016.9 mb 0.04 in1.0 mm 0.00 in0.0 mm 1.66 in42.2 mm
08:05 AM 46.7°F8.2°C 46.7°F8.2°C 98% 10.1 mph SSE16.3 kmh SSE 10.1 mph16.3 kmh 30.03 in1016.9 mb 0.04 in1.0 mm 0.00 in0.0 mm 1.66 in42.2 mm
08:10 AM 46.7°F8.2°C 46.7°F8.2°C 98% 12.8 mph S20.6 kmh S 15.9 mph25.6 kmh 30.03 in1016.9 mb 0.00 in0.0 mm 0.00 in0.0 mm 1.66 in42.2 mm
08:15 AM 46.7°F8.2°C 46.7°F8.2°C 98% 15.0 mph S24.1 kmh S 15.0 mph24.1 kmh 30.03 in1016.9 mb 0.00 in0.0 mm 0.00 in0.0 mm 1.66 in42.2 mm
08:20 AM 46.7°F8.2°C 46.7°F8.2°C 98% 15.4 mph SE24.8 kmh SE 15.4 mph24.8 kmh 30.03 in1016.9 mb 0.00 in0.0 mm 0.00 in0.0 mm 1.66 in42.2 mm
08:25 AM 46.7°F8.2°C 46.7°F8.2°C 98% 10.1 mph SSE16.3 kmh SSE 10.5 mph16.9 kmh 30.03 in1016.9 mb 0.00 in0.0 mm 0.00 in0.0 mm 1.66 in42.2 mm
08:30 AM 46.7°F8.2°C 46.7°F8.2°C 98% 11.0 mph S17.7 kmh S 13.2 mph21.2 kmh 30.03 in1016.9 mb 0.00 in0.0 mm 0.00 in0.0 mm 1.66 in42.2 mm
08:35 AM 46.7°F8.2°C 46.7°F8.2°C 98% 12.3 mph SSE19.8 kmh SSE 15.0 mph24.1 kmh 30.03 in1016.9 mb 0.00 in0.0 mm 0.00 in0.0 mm 1.66 in42.2 mm
08:40 AM 46.7°F8.2°C 46.7°F8.2°C 98% 8.3 mph S13.4 kmh S 12.8 mph20.6 kmh 30.03 in1016.9 mb 0.00 in0.0 mm 0.00 in0.0 mm 1.66 in42.2 mm
08:45 AM 46.7°F8.2°C 46.7°F8.2°C 98% 10.1 mph S16.3 kmh S 13.2 mph21.2 kmh 30.03 in1016.9 mb 0.00 in0.0 mm 0.00 in0.0 mm 1.66 in42.2 mm
08:50 AM 46.7°F8.2°C 46.7°F8.2°C 98% 7.6 mph S12.2 kmh S 11.0 mph17.7 kmh 30.03 in1016.9 mb 0.00 in0.0 mm 0.00 in0.0 mm 1.66 in42.2 mm
08:55 AM 46.7°F8.2°C 46.7°F8.2°C 98% 6.3 mph SSE10.1 kmh SSE 13.6 mph21.9 kmh 30.03 in1016.9 mb 0.00 in0.0 mm 0.00 in0.0 mm 1.66 in42.2 mm
09:00 AM 46.7°F8.2°C 46.7°F8.2°C 98% 8.1 mph SSE13.0 kmh SSE 10.5 mph16.9 kmh 30.06 in1017.9 mb 0.00 in0.0 mm 0.00 in0.0 mm 1.66 in42.2 mm
09:05 AM 46.7°F8.2°C 46.7°F8.2°C 98% 11.0 mph WSW17.7 kmh WSW 20.6 mph33.2 kmh 30.06 in1017.9 mb 0.00 in0.0 mm 0.00 in0.0 mm 1.66 in42.2 mm
09:10 AM 46.7°F8.2°C 46.7°F8.2°C 98% 11.0 mph S17.7 kmh S 12.3 mph19.8 kmh 30.06 in1017.9 mb 0.00 in0.0 mm 0.00 in0.0 mm 1.66 in42.2 mm
09:15 AM 46.9°F8.3°C 46.9°F8.3°C 98% 10.5 mph SSE16.9 kmh SSE 12.3 mph19.8 kmh 30.03 in1016.9 mb 0.00 in0.0 mm 0.00 in0.0 mm 1.66 in42.2 mm
09:20 AM 46.9°F8.3°C 46.9°F8.3°C 98% 11.0 mph S17.7 kmh S 15.0 mph24.1 kmh 30.03 in1016.9 mb 0.00 in0.0 mm 0.00 in0.0 mm 1.66 in42.2 mm
09:25 AM 46.9°F8.3°C 46.9°F8.3°C 98% 11.0 mph S17.7 kmh S 11.0 mph17.7 kmh 30.03 in1016.9 mb 0.00 in0.0 mm 0.00 in0.0 mm 1.66 in42.2 mm
09:30 AM 46.9°F8.3°C 46.9°F8.3°C 98% 12.8 mph SSE20.6 kmh SSE 14.1 mph22.7 kmh 30.06 in1017.9 mb 0.00 in0.0 mm 0.00 in0.0 mm 1.66 in42.2 mm
09:35 AM 46.9°F8.3°C 46.9°F8.3°C 98% 13.2 mph SSE21.2 kmh SSE 13.2 mph21.2 kmh 30.06 in1017.9 mb 0.00 in0.0 mm 0.00 in0.0 mm 1.66 in42.2 mm
09:40 AM 46.9°F8.3°C 46.9°F8.3°C 98% 11.9 mph S19.2 kmh S 11.9 mph19.2 kmh 30.06 in1017.9 mb 0.00 in0.0 mm 0.00 in0.0 mm 1.66 in42.2 mm
09:45 AM 46.9°F8.3°C 46.9°F8.3°C 98% 7.6 mph SSE12.2 kmh SSE 16.8 mph27.0 kmh 30.06 in1017.9 mb 0.00 in0.0 mm 0.00 in0.0 mm 1.66 in42.2 mm
09:50 AM 46.9°F8.3°C 46.9°F8.3°C 98% 9.6 mph SSE15.4 kmh SSE 11.0 mph17.7 kmh 30.06 in1017.9 mb 0.00 in0.0 mm 0.00 in0.0 mm 1.66 in42.2 mm
09:55 AM 46.9°F8.3°C 46.9°F8.3°C 98% 10.5 mph S16.9 kmh S 13.2 mph21.2 kmh 30.06 in1017.9 mb 0.00 in0.0 mm 0.00 in0.0 mm 1.66 in42.2 mm
10:00 AM 46.7°F8.2°C 46.7°F8.2°C 98% 12.8 mph SSE20.6 kmh SSE 12.8 mph20.6 kmh 30.06 in1017.9 mb 0.00 in0.0 mm 0.00 in0.0 mm 1.66 in42.2 mm
10:05 AM 46.7°F8.2°C 46.7°F8.2°C 98% 10.5 mph SSE16.9 kmh SSE 10.5 mph16.9 kmh 30.06 in1017.9 mb 0.00 in0.0 mm 0.00 in0.0 mm 1.66 in42.2 mm
10:10 AM 46.7°F8.2°C 46.7°F8.2°C 98% 15.4 mph S24.8 kmh S 15.4 mph24.8 kmh 30.06 in1017.9 mb 0.00 in0.0 mm 0.00 in0.0 mm 1.66 in42.2 mm
10:15 AM 46.7°F8.2°C 46.7°F8.2°C 98% 4.0 mph S6.4 kmh S 13.2 mph21.2 kmh 30.06 in1017.9 mb 0.00 in0.0 mm 0.00 in0.0 mm 1.66 in42.2 mm
10:20 AM 46.7°F8.2°C 46.7°F8.2°C 98% 10.5 mph S16.9 kmh S 10.5 mph16.9 kmh 30.06 in1017.9 mb 0.00 in0.0 mm 0.00 in0.0 mm 1.66 in42.2 mm
10:25 AM 46.6°F8.1°C 46.6°F8.1°C 98% 8.7 mph S14.0 kmh S 8.7 mph14.0 kmh 30.06 in1017.9 mb 0.00 in0.0 mm 0.00 in0.0 mm 1.66 in42.2 mm
10:30 AM 46.6°F8.1°C 46.6°F8.1°C 98% 9.2 mph SE14.8 kmh SE 10.5 mph16.9 kmh 30.06 in1017.9 mb 0.00 in0.0 mm 0.00 in0.0 mm 1.66 in42.2 mm
10:35 AM 46.6°F8.1°C 46.6°F8.1°C 98% 11.0 mph SSE17.7 kmh SSE 11.0 mph17.7 kmh 30.06 in1017.9 mb 0.00 in0.0 mm 0.00 in0.0 mm 1.66 in42.2 mm
10:40 AM 46.6°F8.1°C 46.6°F8.1°C 98% 10.5 mph SSE16.9 kmh SSE 12.8 mph20.6 kmh 30.06 in1017.9 mb 0.00 in0.0 mm 0.00 in0.0 mm 1.66 in42.2 mm
10:45 AM 46.6°F8.1°C 46.6°F8.1°C 98% 10.1 mph SE16.3 kmh SE 10.5 mph16.9 kmh 30.03 in1016.9 mb 0.00 in0.0 mm 0.00 in0.0 mm 1.66 in42.2 mm
10:50 AM 46.4°F8.0°C 46.4°F8.0°C 98% 8.1 mph SSE13.0 kmh SSE 8.1 mph13.0 kmh 30.03 in1016.9 mb 0.00 in0.0 mm 0.00 in0.0 mm 1.66 in42.2 mm
10:55 AM 46.4°F8.0°C 46.4°F8.0°C 98% 11.4 mph SSE18.3 kmh SSE 11.4 mph18.3 kmh 30.03 in1016.9 mb 0.00 in0.0 mm 0.00 in0.0 mm 1.66 in42.2 mm
11:01 AM 46.2°F7.9°C 46.2°F7.9°C 98% 8.7 mph SE14.0 kmh SE 12.8 mph20.6 kmh 30.03 in1016.9 mb 0.00 in0.0 mm 0.00 in0.0 mm 1.66 in42.2 mm
11:05 AM 46.2°F7.9°C 46.2°F7.9°C 98% 9.6 mph S15.4 kmh S 9.6 mph15.4 kmh 30.03 in1016.9 mb 0.00 in0.0 mm 0.00 in0.0 mm 1.66 in42.2 mm
11:10 AM 46.2°F7.9°C 46.2°F7.9°C 98% 11.0 mph S17.7 kmh S 11.0 mph17.7 kmh 30.03 in1016.9 mb 0.00 in0.0 mm 0.00 in0.0 mm 1.66 in42.2 mm
11:15 AM 46.0°F7.8°C 46.0°F7.8°C 98% 3.1 mph SW5.0 kmh SW 10.1 mph16.3 kmh 30.03 in1016.9 mb 0.00 in0.0 mm 0.00 in0.0 mm 1.66 in42.2 mm
11:20 AM 46.0°F7.8°C 46.0°F7.8°C 98% 4.0 mph SE6.4 kmh SE 12.3 mph19.8 kmh 30.03 in1016.9 mb 0.00 in0.0 mm 0.00 in0.0 mm 1.66 in42.2 mm
11:25 AM 46.0°F7.8°C 46.0°F7.8°C 98% 12.3 mph SSE19.8 kmh SSE 12.8 mph20.6 kmh 30.03 in1016.9 mb 0.00 in0.0 mm 0.00 in0.0 mm 1.66 in42.2 mm
11:30 AM 46.2°F7.9°C 46.2°F7.9°C 98% 5.8 mph S9.3 kmh S 7.6 mph12.2 kmh 30.03 in1016.9 mb 0.00 in0.0 mm 0.00 in0.0 mm 1.66 in42.2 mm
11:35 AM 46.2°F7.9°C 46.2°F7.9°C 98% 6.3 mph SSE10.1 kmh SSE 7.6 mph12.2 kmh 30.03 in1016.9 mb 0.00 in0.0 mm 0.00 in0.0 mm 1.66 in42.2 mm
11:40 AM 46.2°F7.9°C 46.2°F7.9°C 98% 6.7 mph SE10.8 kmh SE 6.7 mph10.8 kmh 30.03 in1016.9 mb 0.00 in0.0 mm 0.00 in0.0 mm 1.66 in42.2 mm
11:45 AM 46.2°F7.9°C 46.2°F7.9°C 98% 8.3 mph SSE13.4 kmh SSE 8.3 mph13.4 kmh 30.03 in1016.9 mb 0.00 in0.0 mm 0.00 in0.0 mm 1.66 in42.2 mm
11:50 AM 46.2°F7.9°C 46.2°F7.9°C 98% 12.8 mph SE20.6 kmh SE 17.4 mph28.0 kmh 30.03 in1016.9 mb 0.00 in0.0 mm 0.00 in0.0 mm 1.66 in42.2 mm
11:55 AM 46.2°F7.9°C 46.2°F7.9°C 98% 7.6 mph SE12.2 kmh SE 10.1 mph16.3 kmh 30.03 in1016.9 mb 0.00 in0.0 mm 0.00 in0.0 mm 1.66 in42.2 mm
12:00 PM 46.2°F7.9°C 46.2°F7.9°C 98% 8.7 mph SE14.0 kmh SE 8.7 mph14.0 kmh 30.06 in1017.9 mb 0.00 in0.0 mm 0.00 in0.0 mm 1.66 in42.2 mm
12:05 PM 46.2°F7.9°C 46.2°F7.9°C 98% 12.3 mph SE19.8 kmh SE 12.8 mph20.6 kmh 30.06 in1017.9 mb 0.00 in0.0 mm 0.00 in0.0 mm 1.66 in42.2 mm
12:10 PM 46.2°F7.9°C 46.2°F7.9°C 98% 11.0 mph SW17.7 kmh SW 15.0 mph24.1 kmh 30.06 in1017.9 mb 0.00 in0.0 mm 0.00 in0.0 mm 1.66 in42.2 mm
12:15 PM 46.2°F7.9°C 46.2°F7.9°C 98% 5.8 mph S9.3 kmh S 5.8 mph9.3 kmh 30.06 in1017.9 mb 0.00 in0.0 mm 0.00 in0.0 mm 1.66 in42.2 mm
12:20 PM 46.2°F7.9°C 46.2°F7.9°C 98% 11.0 mph SW17.7 kmh SW 12.3 mph19.8 kmh 30.06 in1017.9 mb 0.00 in0.0 mm 0.00 in0.0 mm 1.66 in42.2 mm
12:25 PM 46.2°F7.9°C 46.2°F7.9°C 98% 8.3 mph SSE13.4 kmh SSE 10.1 mph16.3 kmh 30.06 in1017.9 mb 0.00 in0.0 mm 0.00 in0.0 mm 1.66 in42.2 mm
12:30 PM 46.2°F7.9°C 46.2°F7.9°C 98% 12.3 mph SW19.8 kmh SW 12.3 mph19.8 kmh 30.03 in1016.9 mb 0.00 in0.0 mm 0.00 in0.0 mm 1.66 in42.2 mm
12:35 PM 46.2°F7.9°C 46.2°F7.9°C 98% 10.5 mph SW16.9 kmh SW 10.5 mph16.9 kmh 30.03 in1016.9 mb 0.00 in0.0 mm 0.00 in0.0 mm 1.66 in42.2 mm
12:40 PM 46.2°F7.9°C 46.2°F7.9°C 98% 11.0 mph SE17.7 kmh SE 11.0 mph17.7 kmh 30.03 in1016.9 mb 0.00 in0.0 mm 0.00 in0.0 mm 1.66 in42.2 mm
12:45 PM 46.0°F7.8°C 46.0°F7.8°C 98% 4.0 mph SE6.4 kmh SE 9.6 mph15.4 kmh 30.06 in1017.9 mb 0.00 in0.0 mm 0.00 in0.0 mm 1.66 in42.2 mm
12:50 PM 46.0°F7.8°C 46.0°F7.8°C 98% 10.1 mph E16.3 kmh E 13.2 mph21.2 kmh 30.06 in1017.9 mb 0.00 in0.0 mm 0.00 in0.0 mm 1.66 in42.2 mm
12:55 PM 46.0°F7.8°C 46.0°F7.8°C 98% 10.5 mph SE16.9 kmh SE 17.0 mph27.4 kmh 30.06 in1017.9 mb 0.00 in0.0 mm 0.00 in0.0 mm 1.66 in42.2 mm
01:00 PM 46.0°F7.8°C 46.0°F7.8°C 98% 7.6 mph SSE12.2 kmh SSE 8.7 mph14.0 kmh 30.06 in1017.9 mb 0.00 in0.0 mm 0.00 in0.0 mm 1.66 in42.2 mm
01:05 PM 46.0°F7.8°C 46.0°F7.8°C 98% 7.6 mph S12.2 kmh S 8.3 mph13.4 kmh 30.06 in1017.9 mb 0.00 in0.0 mm 0.00 in0.0 mm 1.66 in42.2 mm
01:10 PM 46.0°F7.8°C 46.0°F7.8°C 98% 8.3 mph S13.4 kmh S 8.3 mph13.4 kmh 30.06 in1017.9 mb 0.00 in0.0 mm 0.00 in0.0 mm 1.66 in42.2 mm
01:15 PM 45.8°F7.7°C 45.8°F7.7°C 98% 3.6 mph S5.8 kmh S 8.1 mph13.0 kmh 30.06 in1017.9 mb 0.00 in0.0 mm 0.00 in0.0 mm 1.66 in42.2 mm
01:20 PM 45.8°F7.7°C 45.8°F7.7°C 98% 5.8 mph S9.3 kmh S 6.7 mph10.8 kmh 30.06 in1017.9 mb 0.00 in0.0 mm 0.00 in0.0 mm 1.66 in42.2 mm
01:25 PM 45.7°F7.6°C 45.7°F7.6°C 98% 7.6 mph SE12.2 kmh SE 10.1 mph16.3 kmh 30.06 in1017.9 mb 0.00 in0.0 mm 0.00 in0.0 mm 1.66 in42.2 mm
01:30 PM 45.7°F7.6°C 45.7°F7.6°C 98% 10.1 mph WSW16.3 kmh WSW 10.5 mph16.9 kmh 30.06 in1017.9 mb 0.00 in0.0 mm 0.00 in0.0 mm 1.66 in42.2 mm
01:35 PM 45.7°F7.6°C 45.7°F7.6°C 98% 5.8 mph SE9.3 kmh SE 12.8 mph20.6 kmh 30.06 in1017.9 mb 0.00 in0.0 mm 0.00 in0.0 mm 1.66 in42.2 mm
01:40 PM 45.7°F7.6°C 45.7°F7.6°C 98% 13.2 mph SE21.2 kmh SE 13.2 mph21.2 kmh 30.06 in1017.9 mb 0.00 in0.0 mm 0.00 in0.0 mm 1.66 in42.2 mm
01:45 PM 45.7°F7.6°C 45.7°F7.6°C 98% 11.4 mph SE18.3 kmh SE 11.4 mph18.3 kmh 30.06 in1017.9 mb 0.00 in0.0 mm 0.00 in0.0 mm 1.66 in42.2 mm
01:50 PM 45.7°F7.6°C 45.7°F7.6°C 98% 12.3 mph SSE19.8 kmh SSE 12.3 mph19.8 kmh 30.06 in1017.9 mb 0.00 in0.0 mm 0.00 in0.0 mm 1.66 in42.2 mm
01:55 PM 45.7°F7.6°C 45.7°F7.6°C 98% 8.3 mph S13.4 kmh S 8.7 mph14.0 kmh 30.06 in1017.9 mb 0.00 in0.0 mm 0.00 in0.0 mm 1.66 in42.2 mm
02:00 PM 45.7°F7.6°C 45.7°F7.6°C 98% 8.3 mph SSE13.4 kmh SSE 11.0 mph17.7 kmh 30.06 in1017.9 mb 0.00 in0.0 mm 0.00 in0.0 mm 1.66 in42.2 mm
02:05 PM 45.7°F7.6°C 45.7°F7.6°C 98% 5.8 mph SE9.3 kmh SE 8.1 mph13.0 kmh 30.06 in1017.9 mb 0.00 in0.0 mm 0.00 in0.0 mm 1.66 in42.2 mm
02:10 PM 45.7°F7.6°C 45.7°F7.6°C 98% 8.1 mph WSW13.0 kmh WSW 8.7 mph14.0 kmh 30.06 in1017.9 mb 0.00 in0.0 mm 0.00 in0.0 mm 1.66 in42.2 mm
02:15 PM 45.7°F7.6°C 45.7°F7.6°C 98% 11.4 mph SE18.3 kmh SE 11.4 mph18.3 kmh 30.06 in1017.9 mb 0.00 in0.0 mm 0.00 in0.0 mm 1.66 in42.2 mm
02:20 PM 45.7°F7.6°C 45.7°F7.6°C 98% 6.3 mph S10.1 kmh S 6.3 mph10.1 kmh 30.06 in1017.9 mb 0.00 in0.0 mm 0.00 in0.0 mm 1.66 in42.2 mm
02:25 PM 45.7°F7.6°C 45.7°F7.6°C 98% 8.3 mph S13.4 kmh S 12.3 mph19.8 kmh 30.06 in1017.9 mb 0.00 in0.0 mm 0.00 in0.0 mm 1.66 in42.2 mm
02:30 PM 45.7°F7.6°C 45.7°F7.6°C 98% 10.5 mph SSE16.9 kmh SSE 10.5 mph16.9 kmh 30.06 in1017.9 mb 0.00 in0.0 mm 0.00 in0.0 mm 1.66 in42.2 mm
02:35 PM 45.7°F7.6°C 45.7°F7.6°C 98% 10.5 mph SE16.9 kmh SE 11.9 mph19.2 kmh 30.06 in1017.9 mb 0.00 in0.0 mm 0.00 in0.0 mm 1.66 in42.2 mm
02:40 PM 45.5°F7.5°C 45.5°F7.5°C 98% 11.0 mph SSE17.7 kmh SSE 11.0 mph17.7 kmh 30.06 in1017.9 mb 0.00 in0.0 mm 0.00 in0.0 mm 1.66 in42.2 mm
02:45 PM 45.5°F7.5°C 45.5°F7.5°C 98% 15.0 mph SE24.1 kmh SE 15.0 mph24.1 kmh 30.06 in1017.9 mb 0.00 in0.0 mm 0.00 in0.0 mm 1.66 in42.2 mm
02:50 PM 45.5°F7.5°C 45.5°F7.5°C 98% 6.3 mph S10.1 kmh S 10.5 mph16.9 kmh 30.06 in1017.9 mb 0.00 in0.0 mm 0.00 in0.0 mm 1.66 in42.2 mm
02:55 PM 45.3°F7.4°C 45.3°F7.4°C 98% 7.6 mph SE12.2 kmh SE 10.1 mph16.3 kmh 30.06 in1017.9 mb 0.00 in0.0 mm 0.00 in0.0 mm 1.66 in42.2 mm
03:00 PM 45.3°F7.4°C 45.3°F7.4°C 98% 6.3 mph SW10.1 kmh SW 8.3 mph13.4 kmh 30.06 in1017.9 mb 0.00 in0.0 mm 0.00 in0.0 mm 1.66 in42.2 mm
03:05 PM 45.3°F7.4°C 45.3°F7.4°C 98% 8.7 mph SE14.0 kmh SE 8.7 mph14.0 kmh 30.06 in1017.9 mb 0.00 in0.0 mm 0.00 in0.0 mm 1.66 in42.2 mm
03:10 PM 45.3°F7.4°C 45.3°F7.4°C 98% 5.4 mph SE8.7 kmh SE 8.3 mph13.4 kmh 30.06 in1017.9 mb 0.00 in0.0 mm 0.00 in0.0 mm 1.66 in42.2 mm
03:15 PM 45.3°F7.4°C 45.3°F7.4°C 98% 5.4 mph SW8.7 kmh SW 8.7 mph14.0 kmh 30.09 in1019.0 mb 0.00 in0.0 mm 0.00 in0.0 mm 1.66 in42.2 mm
03:20 PM 45.3°F7.4°C 45.3°F7.4°C 98% 9.2 mph SE14.8 kmh SE 10.1 mph16.3 kmh 30.09 in1019.0 mb 0.00 in0.0 mm 0.00 in0.0 mm 1.66 in42.2 mm
03:25 PM 45.3°F7.4°C 45.3°F7.4°C 98% 11.0 mph SE17.7 kmh SE 12.8 mph20.6 kmh 30.09 in1019.0 mb 0.00 in0.0 mm 0.00 in0.0 mm 1.66 in42.2 mm
03:30 PM 45.3°F7.4°C 45.3°F7.4°C 98% 10.5 mph SSE16.9 kmh SSE 11.0 mph17.7 kmh 30.09 in1019.0 mb 0.00 in0.0 mm 0.00 in0.0 mm 1.66 in42.2 mm
03:35 PM 45.3°F7.4°C 45.3°F7.4°C 98% 11.9 mph SSW19.2 kmh SSW 11.9 mph19.2 kmh 30.09 in1019.0 mb 0.00 in0.0 mm 0.00 in0.0 mm 1.66 in42.2 mm
03:40 PM 45.3°F7.4°C 45.3°F7.4°C 98% 7.6 mph S12.2 kmh S 13.6 mph21.9 kmh 30.09 in1019.0 mb 0.00 in0.0 mm 0.00 in0.0 mm 1.66 in42.2 mm
03:45 PM 45.3°F7.4°C 45.3°F7.4°C 98% 4.9 mph SE7.9 kmh SE 10.5 mph16.9 kmh 30.09 in1019.0 mb 0.00 in0.0 mm 0.00 in0.0 mm 1.66 in42.2 mm
03:50 PM 45.3°F7.4°C 45.3°F7.4°C 98% 4.9 mph SSW7.9 kmh SSW 7.6 mph12.2 kmh 30.09 in1019.0 mb 0.00 in0.0 mm 0.00 in0.0 mm 1.66 in42.2 mm
03:55 PM 45.3°F7.4°C 45.3°F7.4°C 98% 5.4 mph WSW8.7 kmh WSW 8.3 mph13.4 kmh 30.09 in1019.0 mb 0.00 in0.0 mm 0.00 in0.0 mm 1.66 in42.2 mm
04:00 PM 45.3°F7.4°C 45.3°F7.4°C 98% 3.6 mph S5.8 kmh S 10.5 mph16.9 kmh 30.09 in1019.0 mb 0.00 in0.0 mm 0.00 in0.0 mm 1.66 in42.2 mm
04:05 PM 45.3°F7.4°C 45.3°F7.4°C 98% 8.7 mph SSE14.0 kmh SSE 15.4 mph24.8 kmh 30.09 in1019.0 mb 0.00 in0.0 mm 0.00 in0.0 mm 1.66 in42.2 mm
04:10 PM 45.3°F7.4°C 45.3°F7.4°C 98% 11.0 mph S17.7 kmh S 11.0 mph17.7 kmh 30.09 in1019.0 mb 0.00 in0.0 mm 0.00 in0.0 mm 1.66 in42.2 mm
04:15 PM 45.3°F7.4°C 45.3°F7.4°C 98% 5.8 mph S9.3 kmh S 8.1 mph13.0 kmh 30.09 in1019.0 mb 0.00 in0.0 mm 0.00 in0.0 mm 1.66 in42.2 mm
04:20 PM 45.3°F7.4°C 45.3°F7.4°C 98% 5.4 mph SE8.7 kmh SE 11.0 mph17.7 kmh 30.09 in1019.0 mb 0.00 in0.0 mm 0.00 in0.0 mm 1.66 in42.2 mm
04:25 PM 45.3°F7.4°C 45.3°F7.4°C 98% 5.8 mph SE9.3 kmh SE 8.1 mph13.0 kmh 30.09 in1019.0 mb 0.00 in0.0 mm 0.00 in0.0 mm 1.66 in42.2 mm
04:30 PM 45.5°F7.5°C 45.5°F7.5°C 98% 10.5 mph SE16.9 kmh SE 10.5 mph16.9 kmh 30.09 in1019.0 mb 0.00 in0.0 mm 0.00 in0.0 mm 1.66 in42.2 mm
04:35 PM 45.7°F7.6°C 45.7°F7.6°C 98% 12.3 mph SSW19.8 kmh SSW 12.3 mph19.8 kmh 30.09 in1019.0 mb 0.00 in0.0 mm 0.00 in0.0 mm 1.66 in42.2 mm
04:40 PM 45.8°F7.7°C 45.8°F7.7°C 98% 8.1 mph SSE13.0 kmh SSE 10.1 mph16.3 kmh 30.09 in1019.0 mb 0.00 in0.0 mm 0.00 in0.0 mm 1.66 in42.2 mm
04:45 PM 46.0°F7.8°C 46.0°F7.8°C 98% 8.7 mph SE14.0 kmh SE 12.3 mph19.8 kmh 30.09 in1019.0 mb 0.00 in0.0 mm 0.00 in0.0 mm 1.66 in42.2 mm
04:50 PM 46.0°F7.8°C 46.0°F7.8°C 98% 10.5 mph SSE16.9 kmh SSE 10.5 mph16.9 kmh 30.09 in1019.0 mb 0.00 in0.0 mm 0.00 in0.0 mm 1.66 in42.2 mm
04:55 PM 46.2°F7.9°C 46.2°F7.9°C 98% 6.3 mph SSE10.1 kmh SSE 8.7 mph14.0 kmh 30.09 in1019.0 mb 0.00 in0.0 mm 0.00 in0.0 mm 1.66 in42.2 mm
05:00 PM 46.4°F8.0°C 46.4°F8.0°C 98% 4.0 mph SE6.4 kmh SE 8.1 mph13.0 kmh 30.09 in1019.0 mb 0.00 in0.0 mm 0.00 in0.0 mm 1.66 in42.2 mm
05:05 PM 45.3°F7.4°C 45.3°F7.4°C 98% 6.3 mph SW10.1 kmh SW 7.6 mph12.2 kmh 30.09 in1019.0 mb 0.00 in0.0 mm 0.00 in0.0 mm 1.66 in42.2 mm
05:10 PM 44.0°F6.7°C 44.0°F6.7°C 98% 6.3 mph NW10.1 kmh NW 10.5 mph16.9 kmh 30.09 in1019.0 mb 0.00 in0.0 mm 0.00 in0.0 mm 1.66 in42.2 mm
05:15 PM 43.1°F6.2°C 43.1°F6.2°C 98% 4.9 mph W7.9 kmh W 6.3 mph10.1 kmh 30.12 in1020.0 mb 0.00 in0.0 mm 0.00 in0.0 mm 1.66 in42.2 mm
05:20 PM 42.6°F5.9°C 42.6°F5.9°C 98% 3.1 mph WSW5.0 kmh WSW 5.8 mph9.3 kmh 30.12 in1020.0 mb 0.00 in0.0 mm 0.00 in0.0 mm 1.66 in42.2 mm
05:25 PM 42.4°F5.8°C 42.4°F5.8°C 98% Calm Calm 3.6 mph5.8 kmh 30.12 in1020.0 mb 0.00 in0.0 mm 0.00 in0.0 mm 1.66 in42.2 mm
05:30 PM 42.6°F5.9°C 42.6°F5.9°C 98% Calm Calm 3.1 mph5.0 kmh 30.12 in1020.0 mb 0.00 in0.0 mm 0.00 in0.0 mm 1.66 in42.2 mm
05:35 PM 42.8°F6.0°C 42.8°F6.0°C 98% 4.0 mph WNW6.4 kmh WNW 4.0 mph6.4 kmh 30.12 in1020.0 mb 0.00 in0.0 mm 0.00 in0.0 mm 1.66 in42.2 mm
05:40 PM 43.0°F6.1°C 43.0°F6.1°C 98% 3.1 mph S5.0 kmh S 6.3 mph10.1 kmh 30.12 in1020.0 mb 0.00 in0.0 mm 0.00 in0.0 mm 1.66 in42.2 mm
05:55 PM 43.3°F6.3°C 43.3°F6.3°C 98% 3.6 mph W5.8 kmh W 5.8 mph9.3 kmh 30.12 in1020.0 mb 0.04 in1.0 mm 0.16 in4.1 mm 1.70 in43.2 mm
06:00 PM 43.3°F6.3°C 43.3°F6.3°C 98% 2.2 mph S3.5 kmh S 4.0 mph6.4 kmh 30.12 in1020.0 mb 0.04 in1.0 mm 0.00 in0.0 mm 1.70 in43.2 mm
06:05 PM 43.7°F6.5°C 43.7°F6.5°C 98% 2.7 mph S4.3 kmh S 3.6 mph5.8 kmh 30.12 in1020.0 mb 0.04 in1.0 mm 0.00 in0.0 mm 1.70 in43.2 mm
06:10 PM 44.0°F6.7°C 44.0°F6.7°C 98% 3.6 mph W5.8 kmh W 5.8 mph9.3 kmh 30.12 in1020.0 mb 0.04 in1.0 mm 0.00 in0.0 mm 1.70 in43.2 mm
06:15 PM 44.2°F6.8°C 44.2°F6.8°C 98% 2.7 mph SW4.3 kmh SW 2.7 mph4.3 kmh 30.12 in1020.0 mb 0.04 in1.0 mm 0.00 in0.0 mm 1.70 in43.2 mm
06:20 PM 44.4°F6.9°C 44.4°F6.9°C 98% 4.0 mph WSW6.4 kmh WSW 4.0 mph6.4 kmh 30.12 in1020.0 mb 0.04 in1.0 mm 0.00 in0.0 mm 1.70 in43.2 mm
06:25 PM 44.4°F6.9°C 44.4°F6.9°C 98% 6.3 mph SW10.1 kmh SW 8.3 mph13.4 kmh 30.12 in1020.0 mb 0.04 in1.0 mm 0.00 in0.0 mm 1.70 in43.2 mm
06:30 PM 44.4°F6.9°C 44.4°F6.9°C 98% 7.6 mph WNW12.2 kmh WNW 7.6 mph12.2 kmh 30.12 in1020.0 mb 0.04 in1.0 mm 0.00 in0.0 mm 1.70 in43.2 mm
06:35 PM 44.4°F6.9°C 44.4°F6.9°C 98% 4.9 mph S7.9 kmh S 8.3 mph13.4 kmh 30.12 in1020.0 mb 0.04 in1.0 mm 0.00 in0.0 mm 1.70 in43.2 mm
06:41 PM 44.2°F6.8°C 44.2°F6.8°C 98% Calm Calm 4.0 mph6.4 kmh 30.12 in1020.0 mb 0.04 in1.0 mm 0.00 in0.0 mm 1.70 in43.2 mm
06:45 PM 44.4°F6.9°C 44.4°F6.9°C 98% Calm Calm -- 30.12 in1020.0 mb 0.04 in1.0 mm 0.00 in0.0 mm 1.70 in43.2 mm
06:50 PM 44.4°F6.9°C 44.4°F6.9°C 98% 4.0 mph SSE6.4 kmh SSE 4.0 mph6.4 kmh 30.12 in1020.0 mb 0.04 in1.0 mm 0.00 in0.0 mm 1.70 in43.2 mm
06:55 PM 44.2°F6.8°C 44.2°F6.8°C 98% Calm Calm 2.7 mph4.3 kmh 30.12 in1020.0 mb 0.00 in0.0 mm 0.00 in0.0 mm 1.70 in43.2 mm
07:00 PM 44.2°F6.8°C 44.2°F6.8°C 98% Calm Calm 6.3 mph10.1 kmh 30.12 in1020.0 mb 0.00 in0.0 mm 0.00 in0.0 mm 1.70 in43.2 mm
07:05 PM 44.2°F6.8°C 44.2°F6.8°C 98% Calm Calm 3.6 mph5.8 kmh 30.12 in1020.0 mb 0.04 in1.0 mm 0.48 in12.2 mm 1.74 in44.2 mm
07:10 PM 44.0°F6.7°C 44.0°F6.7°C 98% 4.0 mph WNW6.4 kmh WNW 4.0 mph6.4 kmh 30.12 in1020.0 mb 0.04 in1.0 mm 0.00 in0.0 mm 1.74 in44.2 mm
07:18 PM 44.0°F6.7°C 44.0°F6.7°C 98% 5.4 mph S8.7 kmh S 5.4 mph8.7 kmh 30.12 in1020.0 mb 0.08 in2.0 mm 0.30 in7.6 mm 1.78 in45.2 mm
07:25 PM 43.3°F6.3°C 43.3°F6.3°C 98% 3.1 mph WNW5.0 kmh WNW 4.9 mph7.9 kmh 30.12 in1020.0 mb 0.12 in3.0 mm 0.34 in8.6 mm 1.82 in46.2 mm
07:30 PM 42.8°F6.0°C 42.8°F6.0°C 98% 3.1 mph SSE5.0 kmh SSE 5.8 mph9.3 kmh 30.12 in1020.0 mb 0.16 in4.1 mm 0.48 in12.2 mm 1.86 in47.2 mm
07:35 PM 42.6°F5.9°C 42.6°F5.9°C 98% 2.7 mph SW4.3 kmh SW 3.1 mph5.0 kmh 30.12 in1020.0 mb 0.16 in4.1 mm 0.00 in0.0 mm 1.86 in47.2 mm
07:40 PM 42.6°F5.9°C 42.6°F5.9°C 98% Calm Calm -- 30.12 in1020.0 mb 0.16 in4.1 mm 0.00 in0.0 mm 1.86 in47.2 mm
07:45 PM 42.8°F6.0°C 42.8°F6.0°C 98% Calm Calm -- 30.12 in1020.0 mb 0.20 in5.1 mm 0.48 in12.2 mm 1.90 in48.3 mm
07:50 PM 42.8°F6.0°C 42.8°F6.0°C 98% Calm Calm 3.6 mph5.8 kmh 30.12 in1020.0 mb 0.20 in5.1 mm 0.00 in0.0 mm 1.90 in48.3 mm
07:55 PM 42.8°F6.0°C 42.8°F6.0°C 98% 5.8 mph ESE9.3 kmh ESE 5.8 mph9.3 kmh 30.12 in1020.0 mb 0.20 in5.1 mm 0.00 in0.0 mm 1.90 in48.3 mm
08:00 PM 42.8°F6.0°C 42.8°F6.0°C 98% 5.4 mph SE8.7 kmh SE 5.8 mph9.3 kmh 30.12 in1020.0 mb 0.20 in5.1 mm 0.00 in0.0 mm 1.90 in48.3 mm
08:05 PM 42.8°F6.0°C 42.8°F6.0°C 98% 7.6 mph SE12.2 kmh SE 7.6 mph12.2 kmh 30.12 in1020.0 mb 0.16 in4.1 mm 0.00 in0.0 mm 1.90 in48.3 mm
08:10 PM 43.0°F6.1°C 43.0°F6.1°C 98% Calm Calm 2.7 mph4.3 kmh 30.12 in1020.0 mb 0.16 in4.1 mm 0.00 in0.0 mm 1.90 in48.3 mm
08:15 PM 43.1°F6.2°C 43.1°F6.2°C 98% 3.6 mph SSE5.8 kmh SSE 4.0 mph6.4 kmh 30.12 in1020.0 mb 0.16 in4.1 mm 0.00 in0.0 mm 1.90 in48.3 mm
08:20 PM 43.5°F6.4°C 43.5°F6.4°C 98% 3.6 mph S5.8 kmh S 3.6 mph5.8 kmh 30.12 in1020.0 mb 0.12 in3.0 mm 0.00 in0.0 mm 1.90 in48.3 mm
08:25 PM 43.7°F6.5°C 43.7°F6.5°C 98% 2.2 mph S3.5 kmh S 2.7 mph4.3 kmh 30.12 in1020.0 mb 0.08 in2.0 mm 0.00 in0.0 mm 1.90 in48.3 mm
08:30 PM 43.9°F6.6°C 43.9°F6.6°C 98% Calm Calm -- 30.12 in1020.0 mb 0.04 in1.0 mm 0.00 in0.0 mm 1.90 in48.3 mm
08:35 PM 44.2°F6.8°C 44.2°F6.8°C 98% Calm Calm 4.0 mph6.4 kmh 30.12 in1020.0 mb 0.04 in1.0 mm 0.00 in0.0 mm 1.90 in48.3 mm
08:40 PM 44.2°F6.8°C 44.2°F6.8°C 98% 3.6 mph SSE5.8 kmh SSE 3.6 mph5.8 kmh 30.12 in1020.0 mb 0.04 in1.0 mm 0.00 in0.0 mm 1.90 in48.3 mm
08:45 PM 44.2°F6.8°C 44.2°F6.8°C 98% 5.4 mph S8.7 kmh S 5.4 mph8.7 kmh 30.12 in1020.0 mb 0.00 in0.0 mm 0.00 in0.0 mm 1.90 in48.3 mm
08:50 PM 44.2°F6.8°C 44.2°F6.8°C 98% 2.7 mph SE4.3 kmh SE 3.6 mph5.8 kmh 30.12 in1020.0 mb 0.00 in0.0 mm 0.00 in0.0 mm 1.90 in48.3 mm
08:55 PM 44.0°F6.7°C 44.0°F6.7°C 98% 3.1 mph SSE5.0 kmh SSE 3.1 mph5.0 kmh 30.12 in1020.0 mb 0.00 in0.0 mm 0.00 in0.0 mm 1.90 in48.3 mm
09:00 PM 43.9°F6.6°C 43.9°F6.6°C 98% 4.0 mph SE6.4 kmh SE 4.9 mph7.9 kmh 30.09 in1019.0 mb 0.00 in0.0 mm 0.00 in0.0 mm 1.90 in48.3 mm
09:05 PM 43.9°F6.6°C 43.9°F6.6°C 98% Calm Calm -- 30.09 in1019.0 mb 0.00 in0.0 mm 0.00 in0.0 mm 1.90 in48.3 mm
09:10 PM 43.9°F6.6°C 43.9°F6.6°C 98% 3.1 mph SSE5.0 kmh SSE 4.0 mph6.4 kmh 30.09 in1019.0 mb 0.00 in0.0 mm 0.00 in0.0 mm 1.90 in48.3 mm
09:15 PM 43.7°F6.5°C 43.7°F6.5°C 98% 3.1 mph SSE5.0 kmh SSE 3.1 mph5.0 kmh 30.09 in1019.0 mb 0.00 in0.0 mm 0.00 in0.0 mm 1.90 in48.3 mm
09:20 PM 43.9°F6.6°C 43.9°F6.6°C 98% Calm Calm -- 30.09 in1019.0 mb 0.00 in0.0 mm 0.00 in0.0 mm 1.90 in48.3 mm
09:25 PM 43.9°F6.6°C 43.9°F6.6°C 98% 3.1 mph SSE5.0 kmh SSE 3.1 mph5.0 kmh 30.09 in1019.0 mb 0.00 in0.0 mm 0.00 in0.0 mm 1.90 in48.3 mm
09:30 PM 43.7°F6.5°C 43.7°F6.5°C 98% 4.0 mph S6.4 kmh S 5.8 mph9.3 kmh 30.09 in1019.0 mb 0.00 in0.0 mm 0.00 in0.0 mm 1.90 in48.3 mm
09:35 PM 43.3°F6.3°C 43.3°F6.3°C 98% 4.0 mph SSE6.4 kmh SSE 4.0 mph6.4 kmh 30.09 in1019.0 mb 0.04 in1.0 mm 0.48 in12.2 mm 1.94 in49.3 mm
09:40 PM 43.1°F6.2°C 43.1°F6.2°C 98% 4.0 mph SSE6.4 kmh SSE 4.9 mph7.9 kmh 30.09 in1019.0 mb 0.08 in2.0 mm 0.48 in12.2 mm 1.98 in50.3 mm
09:45 PM 43.1°F6.2°C 43.1°F6.2°C 98% 3.1 mph E5.0 kmh E 3.6 mph5.8 kmh 30.09 in1019.0 mb 0.08 in2.0 mm 0.00 in0.0 mm 1.98 in50.3 mm
09:50 PM 43.1°F6.2°C 43.1°F6.2°C 98% 3.1 mph SSE5.0 kmh SSE 4.0 mph6.4 kmh 30.09 in1019.0 mb 0.12 in3.0 mm 0.48 in12.2 mm 2.02 in51.3 mm
09:55 PM 43.5°F6.4°C 43.5°F6.4°C 98% 4.9 mph S7.9 kmh S 7.6 mph12.2 kmh 30.09 in1019.0 mb 0.12 in3.0 mm 0.00 in0.0 mm 2.02 in51.3 mm
10:00 PM 44.2°F6.8°C 44.2°F6.8°C 98% 2.7 mph SSE4.3 kmh SSE 5.4 mph8.7 kmh 30.09 in1019.0 mb 0.12 in3.0 mm 0.00 in0.0 mm 2.02 in51.3 mm
10:05 PM 44.6°F7.0°C 44.6°F7.0°C 98% Calm Calm 2.2 mph3.5 kmh 30.09 in1019.0 mb 0.12 in3.0 mm 0.00 in0.0 mm 2.02 in51.3 mm
10:10 PM 44.8°F7.1°C 44.8°F7.1°C 98% 2.7 mph S4.3 kmh S 5.8 mph9.3 kmh 30.09 in1019.0 mb 0.12 in3.0 mm 0.00 in0.0 mm 2.02 in51.3 mm
10:15 PM 44.9°F7.2°C 44.9°F7.2°C 98% 5.4 mph S8.7 kmh S 6.3 mph10.1 kmh 30.09 in1019.0 mb 0.12 in3.0 mm 0.00 in0.0 mm 2.02 in51.3 mm
10:20 PM 44.9°F7.2°C 44.9°F7.2°C 98% 4.9 mph S7.9 kmh S 8.3 mph13.4 kmh 30.09 in1019.0 mb 0.12 in3.0 mm 0.00 in0.0 mm 2.02 in51.3 mm
10:25 PM 44.4°F6.9°C 44.4°F6.9°C 98% 4.0 mph SSE6.4 kmh SSE 6.3 mph10.1 kmh 30.09 in1019.0 mb 0.12 in3.0 mm 0.00 in0.0 mm 2.02 in51.3 mm
10:30 PM 44.0°F6.7°C 44.0°F6.7°C 98% 5.4 mph S8.7 kmh S 5.8 mph9.3 kmh 30.09 in1019.0 mb 0.12 in3.0 mm 0.00 in0.0 mm 2.02 in51.3 mm
10:35 PM 43.9°F6.6°C 43.9°F6.6°C 98% 4.0 mph SSE6.4 kmh SSE 5.8 mph9.3 kmh 30.09 in1019.0 mb 0.08 in2.0 mm 0.00 in0.0 mm 2.02 in51.3 mm
10:40 PM 43.3°F6.3°C 43.3°F6.3°C 98% 5.4 mph SSE8.7 kmh SSE 6.3 mph10.1 kmh 30.09 in1019.0 mb 0.04 in1.0 mm 0.00 in0.0 mm 2.02 in51.3 mm
10:45 PM 43.1°F6.2°C 43.1°F6.2°C 98% 4.0 mph SSE6.4 kmh SSE 5.8 mph9.3 kmh 30.09 in1019.0 mb 0.04 in1.0 mm 0.00 in0.0 mm 2.02 in51.3 mm
10:50 PM 43.7°F6.5°C 43.7°F6.5°C 98% 3.6 mph S5.8 kmh S 5.8 mph9.3 kmh 30.09 in1019.0 mb 0.00 in0.0 mm 0.00 in0.0 mm 2.02 in51.3 mm
10:55 PM 44.0°F6.7°C 44.0°F6.7°C 98% 4.0 mph SSE6.4 kmh SSE 4.0 mph6.4 kmh 30.09 in1019.0 mb 0.00 in0.0 mm 0.00 in0.0 mm 2.02 in51.3 mm
11:00 PM 44.0°F6.7°C 44.0°F6.7°C 98% 3.1 mph SW5.0 kmh SW 4.0 mph6.4 kmh 30.09 in1019.0 mb 0.00 in0.0 mm 0.00 in0.0 mm 2.02 in51.3 mm
11:05 PM 44.4°F6.9°C 44.4°F6.9°C 98% 3.6 mph SE5.8 kmh SE 4.0 mph6.4 kmh 30.09 in1019.0 mb 0.00 in0.0 mm 0.00 in0.0 mm 2.02 in51.3 mm
11:10 PM 44.4°F6.9°C 44.4°F6.9°C 98% 3.6 mph S5.8 kmh S 3.6 mph5.8 kmh 30.09 in1019.0 mb 0.00 in0.0 mm 0.00 in0.0 mm 2.02 in51.3 mm
11:15 PM 44.6°F7.0°C 44.6°F7.0°C 98% 2.7 mph S4.3 kmh S 4.0 mph6.4 kmh 30.09 in1019.0 mb 0.00 in0.0 mm 0.00 in0.0 mm 2.02 in51.3 mm
11:20 PM 44.8°F7.1°C 44.8°F7.1°C 98% 3.1 mph SSW5.0 kmh SSW 3.1 mph5.0 kmh 30.09 in1019.0 mb 0.00 in0.0 mm 0.00 in0.0 mm 2.02 in51.3 mm
11:25 PM 44.9°F7.2°C 44.9°F7.2°C 98% 4.0 mph S6.4 kmh S 5.4 mph8.7 kmh 30.09 in1019.0 mb 0.00 in0.0 mm 0.00 in0.0 mm 2.02 in51.3 mm
11:30 PM 44.9°F7.2°C 44.9°F7.2°C 98% 2.7 mph SSE4.3 kmh SSE 5.4 mph8.7 kmh 30.09 in1019.0 mb 0.00 in0.0 mm 0.00 in0.0 mm 2.02 in51.3 mm
11:35 PM 44.9°F7.2°C 44.9°F7.2°C 98% 2.7 mph S4.3 kmh S 4.9 mph7.9 kmh 30.09 in1019.0 mb 0.00 in0.0 mm 0.00 in0.0 mm 2.02 in51.3 mm
11:40 PM 45.1°F7.3°C 45.1°F7.3°C 98% 3.1 mph SSE5.0 kmh SSE 3.6 mph5.8 kmh 30.09 in1019.0 mb 0.00 in0.0 mm 0.00 in0.0 mm 2.02 in51.3 mm
11:45 PM 45.1°F7.3°C 45.1°F7.3°C 98% 4.0 mph S6.4 kmh S 6.3 mph10.1 kmh 30.06 in1017.9 mb 0.00 in0.0 mm 0.00 in0.0 mm 2.02 in51.3 mm
11:50 PM 44.9°F7.2°C 44.9°F7.2°C 98% 6.3 mph SSE10.1 kmh SSE 7.6 mph12.2 kmh 30.06 in1017.9 mb 0.00 in0.0 mm 0.00 in0.0 mm 2.02 in51.3 mm
11:55 PM 44.9°F7.2°C 44.9°F7.2°C 98% 3.6 mph S5.8 kmh S 5.8 mph9.3 kmh 30.06 in1017.9 mb 0.00 in0.0 mm 0.00 in0.0 mm 2.02 in51.3 mm